Portada
METAR-TAF:

METAR-TAF

Aeroports :

Luang Prabang, Laos

latitud: 19-53N, longitud: 102-08E, altitud: 305 m

Observació

L'informe es va fer fa 1 hora i 16 minuts, a les 13:00 UTC
Vent 2 kt del Nord
Temperatura 27°C
Humitat 66%
Pressió 1007 hPa
Visibilitat 10 km o més
Núvols disperses a una alçada de 1700 ft
Núvols disperses a una alçada de 6000 ft

METAR: VLLB 071300Z 36002KT 9999 SCT017 SCT060 27/20 Q1007 NOSIG

Hora: 21:16 (14:16 UTC)

Pronòstic

L'informe es va fer fa 3 hores i 16 minuts, a les 11:00 UTC
Pronòstic vàlid del 07 a les 12 UTC al 08 a les 12 UTC
Vent 6 kt del Nord-Oest
Visibilitat: 5000 m
Núvols disperses a una alçada de 1700 ft
Núvols disperses a una alçada de 6000 ft
fum

TAF: VLLB 071100Z 0712/0812 32006KT 5000 FU SCT017 SCT060

Observacions i pronòstics meteorològics de més de 4000 aeroports (METAR i TAF).

Les estacions disponibles són els punts grocs i vermells al mapa.

Posi el ratolí al punt desitjat per veure el nom de l'estació.

Feu clic per veure les observacions i els pronòstics meteorològics.

Per canviar el mapa: feu clic els botons verds amb una creu de color negre per apropar; al botó verd amb un guió per allunyar la imatge; o en les fletxes verdes per a mapes adjacents.


METAR-TAF: